sensor_id;sensor_type;location;lat;lon;timestamp;temperature;humidity
77496;SHT31;66600;48.378;9.948;2023-05-29T00:02:23;14.05;58.24
77496;SHT31;66600;48.378;9.948;2023-05-29T00:04:48;14.00;58.44
77496;SHT31;66600;48.378;9.948;2023-05-29T00:07:13;13.91;59.04
77496;SHT31;66600;48.378;9.948;2023-05-29T00:09:39;13.84;59.15
77496;SHT31;66600;48.378;9.948;2023-05-29T00:12:04;13.74;59.49
77496;SHT31;66600;48.378;9.948;2023-05-29T00:14:30;13.73;59.62
77496;SHT31;66600;48.378;9.948;2023-05-29T00:16:56;13.70;59.62
77496;SHT31;66600;48.378;9.948;2023-05-29T00:19:22;13.69;59.94
77496;SHT31;66600;48.378;9.948;2023-05-29T00:21:49;13.58;60.34
77496;SHT31;66600;48.378;9.948;2023-05-29T00:24:15;13.48;60.83
77496;SHT31;66600;48.378;9.948;2023-05-29T00:26:41;13.34;61.28
77496;SHT31;66600;48.378;9.948;2023-05-29T00:29:06;13.29;61.27
77496;SHT31;66600;48.378;9.948;2023-05-29T00:31:31;13.21;61.74
77496;SHT31;66600;48.378;9.948;2023-05-29T00:33:57;13.25;61.55
77496;SHT31;66600;48.378;9.948;2023-05-29T00:36:23;13.19;61.67
77496;SHT31;66600;48.378;9.948;2023-05-29T00:38:48;13.25;61.42
77496;SHT31;66600;48.378;9.948;2023-05-29T00:41:14;13.29;61.02
77496;SHT31;66600;48.378;9.948;2023-05-29T00:43:41;13.34;60.89
77496;SHT31;66600;48.378;9.948;2023-05-29T00:46:06;13.29;61.12
77496;SHT31;66600;48.378;9.948;2023-05-29T00:48:32;13.25;61.09
77496;SHT31;66600;48.378;9.948;2023-05-29T00:50:57;13.25;60.96
77496;SHT31;66600;48.378;9.948;2023-05-29T00:53:23;13.31;60.89
77496;SHT31;66600;48.378;9.948;2023-05-29T00:55:49;13.26;60.99
77496;SHT31;66600;48.378;9.948;2023-05-29T00:58:15;13.25;61.23
77496;SHT31;66600;48.378;9.948;2023-05-29T01:00:40;13.25;60.92
77496;SHT31;66600;48.378;9.948;2023-05-29T01:03:06;13.26;60.67
77496;SHT31;66600;48.378;9.948;2023-05-29T01:05:34;13.31;60.46
77496;SHT31;66600;48.378;9.948;2023-05-29T01:08:03;13.34;60.48
77496;SHT31;66600;48.378;9.948;2023-05-29T01:10:29;13.31;60.38
77496;SHT31;66600;48.378;9.948;2023-05-29T01:13:03;13.26;60.60
77496;SHT31;66600;48.378;9.948;2023-05-29T01:18:38;13.25;60.39
77496;SHT31;66600;48.378;9.948;2023-05-29T01:21:17;13.18;60.60
77496;SHT31;66600;48.378;9.948;2023-05-29T01:24:13;13.18;60.41
77496;SHT31;66600;48.378;9.948;2023-05-29T01:26:58;13.28;60.35
77496;SHT31;66600;48.378;9.948;2023-05-29T01:29:28;13.29;60.13
77496;SHT31;66600;48.378;9.948;2023-05-29T01:31:56;13.22;60.36
77496;SHT31;66600;48.378;9.948;2023-05-29T01:34:22;13.22;60.40
77496;SHT31;66600;48.378;9.948;2023-05-29T01:36:47;13.12;60.70
77496;SHT31;66600;48.378;9.948;2023-05-29T01:39:13;13.14;60.58
77496;SHT31;66600;48.378;9.948;2023-05-29T01:41:39;13.16;60.52
77496;SHT31;66600;48.378;9.948;2023-05-29T01:44:06;13.08;61.13
77496;SHT31;66600;48.378;9.948;2023-05-29T01:46:37;13.07;61.14
77496;SHT31;66600;48.378;9.948;2023-05-29T01:49:03;13.01;61.15
77496;SHT31;66600;48.378;9.948;2023-05-29T01:51:29;13.01;61.36
77496;SHT31;66600;48.378;9.948;2023-05-29T01:53:57;13.02;61.30
77496;SHT31;66600;48.378;9.948;2023-05-29T01:56:24;12.94;61.61
77496;SHT31;66600;48.378;9.948;2023-05-29T01:58:52;12.88;61.91
77496;SHT31;66600;48.378;9.948;2023-05-29T02:01:19;12.87;61.84
77496;SHT31;66600;48.378;9.948;2023-05-29T02:03:45;12.87;61.88
77496;SHT31;66600;48.378;9.948;2023-05-29T02:06:10;12.98;61.55
77496;SHT31;66600;48.378;9.948;2023-05-29T02:08:36;12.93;61.66
77496;SHT31;66600;48.378;9.948;2023-05-29T02:11:01;12.88;61.69
77496;SHT31;66600;48.378;9.948;2023-05-29T02:13:26;12.93;61.32
77496;SHT31;66600;48.378;9.948;2023-05-29T02:15:52;13.00;61.16
77496;SHT31;66600;48.378;9.948;2023-05-29T02:18:17;13.02;61.34
77496;SHT31;66600;48.378;9.948;2023-05-29T02:20:44;12.97;61.36
77496;SHT31;66600;48.378;9.948;2023-05-29T02:23:10;12.94;61.47
77496;SHT31;66600;48.378;9.948;2023-05-29T02:25:35;12.91;61.71
77496;SHT31;66600;48.378;9.948;2023-05-29T02:28:01;12.88;61.60
77496;SHT31;66600;48.378;9.948;2023-05-29T02:30:27;12.81;62.06
77496;SHT31;66600;48.378;9.948;2023-05-29T02:32:53;12.79;62.10
77496;SHT31;66600;48.378;9.948;2023-05-29T02:35:18;12.77;62.05
77496;SHT31;66600;48.378;9.948;2023-05-29T02:37:46;12.76;62.12
77496;SHT31;66600;48.378;9.948;2023-05-29T02:40:11;12.77;62.18
77496;SHT31;66600;48.378;9.948;2023-05-29T02:42:36;12.66;62.35
77496;SHT31;66600;48.378;9.948;2023-05-29T02:45:02;12.64;62.53
77496;SHT31;66600;48.378;9.948;2023-05-29T02:47:27;12.60;62.63
77496;SHT31;66600;48.378;9.948;2023-05-29T02:49:53;12.60;62.70
77496;SHT31;66600;48.378;9.948;2023-05-29T02:52:18;12.55;62.96
77496;SHT31;66600;48.378;9.948;2023-05-29T02:54:43;12.50;63.21
77496;SHT31;66600;48.378;9.948;2023-05-29T02:57:09;12.49;63.32
77496;SHT31;66600;48.378;9.948;2023-05-29T02:59:34;12.47;63.13
77496;SHT31;66600;48.378;9.948;2023-05-29T03:02:00;12.46;63.38
77496;SHT31;66600;48.378;9.948;2023-05-29T03:04:26;12.42;63.53
77496;SHT31;66600;48.378;9.948;2023-05-29T03:06:52;12.40;63.69
77496;SHT31;66600;48.378;9.948;2023-05-29T03:09:18;12.39;63.78
77496;SHT31;66600;48.378;9.948;2023-05-29T03:11:43;12.30;63.92
77496;SHT31;66600;48.378;9.948;2023-05-29T03:14:10;12.29;64.01
77496;SHT31;66600;48.378;9.948;2023-05-29T03:16:35;12.24;64.34
77496;SHT31;66600;48.378;9.948;2023-05-29T03:19:01;12.19;64.54
77496;SHT31;66600;48.378;9.948;2023-05-29T03:21:26;12.15;64.75
77496;SHT31;66600;48.378;9.948;2023-05-29T03:23:51;12.15;64.97
77496;SHT31;66600;48.378;9.948;2023-05-29T03:26:17;12.16;64.82
77496;SHT31;66600;48.378;9.948;2023-05-29T03:28:42;12.18;64.58
77496;SHT31;66600;48.378;9.948;2023-05-29T03:31:07;12.24;64.52
77496;SHT31;66600;48.378;9.948;2023-05-29T03:33:34;12.19;64.65
77496;SHT31;66600;48.378;9.948;2023-05-29T03:35:59;12.28;64.35
77496;SHT31;66600;48.378;9.948;2023-05-29T03:38:25;12.26;64.50
77496;SHT31;66600;48.378;9.948;2023-05-29T03:40:50;12.24;64.63
77496;SHT31;66600;48.378;9.948;2023-05-29T03:43:16;12.26;64.78
77496;SHT31;66600;48.378;9.948;2023-05-29T03:45:41;12.28;64.75
77496;SHT31;66600;48.378;9.948;2023-05-29T03:48:06;12.32;64.44
77496;SHT31;66600;48.378;9.948;2023-05-29T03:50:32;12.29;64.73
77496;SHT31;66600;48.378;9.948;2023-05-29T03:52:57;12.28;64.72
77496;SHT31;66600;48.378;9.948;2023-05-29T03:55:22;12.25;64.77
77496;SHT31;66600;48.378;9.948;2023-05-29T03:57:48;12.25;64.95
77496;SHT31;66600;48.378;9.948;2023-05-29T04:00:13;12.24;65.21
77496;SHT31;66600;48.378;9.948;2023-05-29T04:02:39;12.25;65.45
77496;SHT31;66600;48.378;9.948;2023-05-29T04:05:05;12.26;65.25
77496;SHT31;66600;48.378;9.948;2023-05-29T04:07:32;12.25;65.46
77496;SHT31;66600;48.378;9.948;2023-05-29T04:09:57;12.28;65.33
77496;SHT31;66600;48.378;9.948;2023-05-29T04:12:23;12.28;65.20
77496;SHT31;66600;48.378;9.948;2023-05-29T04:14:48;12.33;65.37
77496;SHT31;66600;48.378;9.948;2023-05-29T04:17:13;12.36;65.36
77496;SHT31;66600;48.378;9.948;2023-05-29T04:19:38;12.39;65.23
77496;SHT31;66600;48.378;9.948;2023-05-29T04:22:04;12.45;64.91
77496;SHT31;66600;48.378;9.948;2023-05-29T04:24:29;12.50;65.03
77496;SHT31;66600;48.378;9.948;2023-05-29T04:26:57;12.52;65.20
77496;SHT31;66600;48.378;9.948;2023-05-29T04:29:22;12.59;65.01
77496;SHT31;66600;48.378;9.948;2023-05-29T04:31:48;12.68;64.75
77496;SHT31;66600;48.378;9.948;2023-05-29T04:34:13;12.68;64.81
77496;SHT31;66600;48.378;9.948;2023-05-29T04:36:42;12.76;64.07
77496;SHT31;66600;48.378;9.948;2023-05-29T04:39:08;12.80;64.56
77496;SHT31;66600;48.378;9.948;2023-05-29T04:41:34;12.84;64.39
77496;SHT31;66600;48.378;9.948;2023-05-29T04:44:00;12.93;64.24
77496;SHT31;66600;48.378;9.948;2023-05-29T04:46:26;12.97;64.12
77496;SHT31;66600;48.378;9.948;2023-05-29T04:48:52;13.00;64.51
77496;SHT31;66600;48.378;9.948;2023-05-29T04:51:21;13.04;64.34
77496;SHT31;66600;48.378;9.948;2023-05-29T04:53:47;13.10;64.39
77496;SHT31;66600;48.378;9.948;2023-05-29T04:56:13;13.19;64.01
77496;SHT31;66600;48.378;9.948;2023-05-29T04:58:40;13.25;63.90
77496;SHT31;66600;48.378;9.948;2023-05-29T05:01:06;13.29;64.14
77496;SHT31;66600;48.378;9.948;2023-05-29T05:03:33;13.40;63.82
77496;SHT31;66600;48.378;9.948;2023-05-29T05:06:01;13.48;63.64
77496;SHT31;66600;48.378;9.948;2023-05-29T05:08:28;13.58;63.06
77496;SHT31;66600;48.378;9.948;2023-05-29T05:10:54;13.65;63.18
77496;SHT31;66600;48.378;9.948;2023-05-29T05:13:19;13.69;62.72
77496;SHT31;66600;48.378;9.948;2023-05-29T05:15:45;13.76;62.33
77496;SHT31;66600;48.378;9.948;2023-05-29T05:18:10;13.84;61.95
77496;SHT31;66600;48.378;9.948;2023-05-29T05:20:35;13.93;62.27
77496;SHT31;66600;48.378;9.948;2023-05-29T05:23:01;13.93;61.83
77496;SHT31;66600;48.378;9.948;2023-05-29T05:25:26;14.07;61.68
77496;SHT31;66600;48.378;9.948;2023-05-29T05:27:52;14.11;61.68
77496;SHT31;66600;48.378;9.948;2023-05-29T05:30:17;14.17;61.65
77496;SHT31;66600;48.378;9.948;2023-05-29T05:32:42;14.25;61.17
77496;SHT31;66600;48.378;9.948;2023-05-29T05:35:08;14.29;61.37
77496;SHT31;66600;48.378;9.948;2023-05-29T05:37:36;14.35;61.04
77496;SHT31;66600;48.378;9.948;2023-05-29T05:40:01;14.42;60.49
77496;SHT31;66600;48.378;9.948;2023-05-29T05:42:28;14.46;60.63
77496;SHT31;66600;48.378;9.948;2023-05-29T05:44:53;14.62;59.90
77496;SHT31;66600;48.378;9.948;2023-05-29T05:47:19;14.75;59.69
77496;SHT31;66600;48.378;9.948;2023-05-29T05:49:44;14.93;59.30
77496;SHT31;66600;48.378;9.948;2023-05-29T05:52:10;15.03;59.17
77496;SHT31;66600;48.378;9.948;2023-05-29T05:54:35;15.01;59.31
77496;SHT31;66600;48.378;9.948;2023-05-29T05:57:00;15.25;59.19
77496;SHT31;66600;48.378;9.948;2023-05-29T05:59:26;15.31;58.52
77496;SHT31;66600;48.378;9.948;2023-05-29T06:01:51;15.32;57.67
77496;SHT31;66600;48.378;9.948;2023-05-29T06:04:17;15.25;58.07
77496;SHT31;66600;48.378;9.948;2023-05-29T06:06:43;15.39;57.96
77496;SHT31;66600;48.378;9.948;2023-05-29T06:09:09;15.23;58.83
77496;SHT31;66600;48.378;9.948;2023-05-29T06:11:36;15.06;58.91
77496;SHT31;66600;48.378;9.948;2023-05-29T06:14:03;15.07;59.34
77496;SHT31;66600;48.378;9.948;2023-05-29T06:16:28;15.10;59.20
77496;SHT31;66600;48.378;9.948;2023-05-29T06:18:54;14.93;59.63
77496;SHT31;66600;48.378;9.948;2023-05-29T06:21:22;15.24;59.41
77496;SHT31;66600;48.378;9.948;2023-05-29T06:23:48;15.37;58.78
77496;SHT31;66600;48.378;9.948;2023-05-29T06:26:14;15.48;59.06
77496;SHT31;66600;48.378;9.948;2023-05-29T06:28:41;15.20;59.05
77496;SHT31;66600;48.378;9.948;2023-05-29T06:31:06;15.46;58.57
77496;SHT31;66600;48.378;9.948;2023-05-29T06:33:31;15.35;58.79
77496;SHT31;66600;48.378;9.948;2023-05-29T06:35:57;15.49;58.62
77496;SHT31;66600;48.378;9.948;2023-05-29T06:38:22;15.49;58.37
77496;SHT31;66600;48.378;9.948;2023-05-29T06:40:48;15.30;58.22
77496;SHT31;66600;48.378;9.948;2023-05-29T06:43:13;15.58;58.72
77496;SHT31;66600;48.378;9.948;2023-05-29T06:45:39;15.56;57.66
77496;SHT31;66600;48.378;9.948;2023-05-29T06:48:04;15.99;57.51
77496;SHT31;66600;48.378;9.948;2023-05-29T06:50:29;16.37;56.93
77496;SHT31;66600;48.378;9.948;2023-05-29T06:52:55;16.42;56.02
77496;SHT31;66600;48.378;9.948;2023-05-29T06:55:20;16.40;56.23
77496;SHT31;66600;48.378;9.948;2023-05-29T06:57:46;16.41;56.00
77496;SHT31;66600;48.378;9.948;2023-05-29T07:00:12;16.65;55.77
77496;SHT31;66600;48.378;9.948;2023-05-29T07:02:37;16.92;54.78
77496;SHT31;66600;48.378;9.948;2023-05-29T07:05:03;16.75;55.27
77496;SHT31;66600;48.378;9.948;2023-05-29T07:07:28;16.93;54.66
77496;SHT31;66600;48.378;9.948;2023-05-29T07:09:54;17.00;55.53
77496;SHT31;66600;48.378;9.948;2023-05-29T07:12:19;17.16;54.78
77496;SHT31;66600;48.378;9.948;2023-05-29T07:14:45;17.28;54.51
77496;SHT31;66600;48.378;9.948;2023-05-29T07:17:13;16.92;54.67
77496;SHT31;66600;48.378;9.948;2023-05-29T07:19:38;17.00;55.24
77496;SHT31;66600;48.378;9.948;2023-05-29T07:22:04;17.10;55.33
77496;SHT31;66600;48.378;9.948;2023-05-29T07:24:29;17.38;55.52
77496;SHT31;66600;48.378;9.948;2023-05-29T07:26:54;17.55;55.10
77496;SHT31;66600;48.378;9.948;2023-05-29T07:29:20;17.47;55.17
77496;SHT31;66600;48.378;9.948;2023-05-29T07:31:48;17.55;54.86
77496;SHT31;66600;48.378;9.948;2023-05-29T07:34:13;17.54;56.15
77496;SHT31;66600;48.378;9.948;2023-05-29T07:37:05;17.74;55.55
77496;SHT31;66600;48.378;9.948;2023-05-29T07:39:32;18.23;54.70
77496;SHT31;66600;48.378;9.948;2023-05-29T07:41:59;17.70;54.90
77496;SHT31;66600;48.378;9.948;2023-05-29T07:44:25;17.44;56.38
77496;SHT31;66600;48.378;9.948;2023-05-29T07:46:50;17.78;55.54
77496;SHT31;66600;48.378;9.948;2023-05-29T07:49:15;17.67;55.68
77496;SHT31;66600;48.378;9.948;2023-05-29T07:51:41;18.19;55.72
77496;SHT31;66600;48.378;9.948;2023-05-29T07:54:06;18.23;53.93
77496;SHT31;66600;48.378;9.948;2023-05-29T07:56:32;18.57;53.62
77496;SHT31;66600;48.378;9.948;2023-05-29T07:58:59;17.99;54.65
77496;SHT31;66600;48.378;9.948;2023-05-29T08:01:25;18.12;55.31
77496;SHT31;66600;48.378;9.948;2023-05-29T08:03:51;18.34;54.28
77496;SHT31;66600;48.378;9.948;2023-05-29T08:06:16;18.34;54.55
77496;SHT31;66600;48.378;9.948;2023-05-29T08:08:41;18.34;53.91
77496;SHT31;66600;48.378;9.948;2023-05-29T08:11:08;18.61;54.60
77496;SHT31;66600;48.378;9.948;2023-05-29T08:13:33;18.71;53.46
77496;SHT31;66600;48.378;9.948;2023-05-29T08:15:58;19.13;53.18
77496;SHT31;66600;48.378;9.948;2023-05-29T08:18:27;19.27;52.47
77496;SHT31;66600;48.378;9.948;2023-05-29T08:20:52;19.23;51.54
77496;SHT31;66600;48.378;9.948;2023-05-29T08:23:18;19.82;51.08
77496;SHT31;66600;48.378;9.948;2023-05-29T08:25:44;18.87;53.04
77496;SHT31;66600;48.378;9.948;2023-05-29T08:28:09;19.12;53.63
77496;SHT31;66600;48.378;9.948;2023-05-29T08:30:34;19.54;51.60
77496;SHT31;66600;48.378;9.948;2023-05-29T08:33:00;19.58;51.82
77496;SHT31;66600;48.378;9.948;2023-05-29T08:35:25;19.60;51.33
77496;SHT31;66600;48.378;9.948;2023-05-29T08:37:50;19.87;50.67
77496;SHT31;66600;48.378;9.948;2023-05-29T08:40:16;20.43;49.45
77496;SHT31;66600;48.378;9.948;2023-05-29T08:42:47;19.81;50.51
77496;SHT31;66600;48.378;9.948;2023-05-29T08:45:17;20.36;51.00
77496;SHT31;66600;48.378;9.948;2023-05-29T08:47:44;20.02;51.74
77496;SHT31;66600;48.378;9.948;2023-05-29T08:50:10;20.46;48.71
77496;SHT31;66600;48.378;9.948;2023-05-29T08:52:36;20.87;49.02
77496;SHT31;66600;48.378;9.948;2023-05-29T08:55:02;21.04;48.19
77496;SHT31;66600;48.378;9.948;2023-05-29T08:57:29;21.02;47.83
77496;SHT31;66600;48.378;9.948;2023-05-29T08:59:55;20.74;48.51
77496;SHT31;66600;48.378;9.948;2023-05-29T09:02:21;20.44;47.94
77496;SHT31;66600;48.378;9.948;2023-05-29T09:04:46;20.84;47.82
77496;SHT31;66600;48.378;9.948;2023-05-29T09:07:18;21.02;46.67
77496;SHT31;66600;48.378;9.948;2023-05-29T09:09:45;21.12;46.76
77496;SHT31;66600;48.378;9.948;2023-05-29T09:12:11;20.74;45.95
77496;SHT31;66600;48.378;9.948;2023-05-29T09:14:43;21.45;45.93
77496;SHT31;66600;48.378;9.948;2023-05-29T09:17:11;21.15;46.03
77496;SHT31;66600;48.378;9.948;2023-05-29T09:19:37;21.02;44.40
77496;SHT31;66600;48.378;9.948;2023-05-29T09:22:08;20.79;45.23
77496;SHT31;66600;48.378;9.948;2023-05-29T09:24:36;21.08;44.93
77496;SHT31;66600;48.378;9.948;2023-05-29T09:27:03;21.63;42.71
77496;SHT31;66600;48.378;9.948;2023-05-29T09:29:43;21.90;44.31
77496;SHT31;66600;48.378;9.948;2023-05-29T09:32:15;22.05;40.96
77496;SHT31;66600;48.378;9.948;2023-05-29T09:34:41;21.32;41.49
77496;SHT31;66600;48.378;9.948;2023-05-29T09:37:08;21.26;41.45
77496;SHT31;66600;48.378;9.948;2023-05-29T09:39:43;20.92;42.42
77496;SHT31;66600;48.378;9.948;2023-05-29T09:42:09;21.45;40.85
77496;SHT31;66600;48.378;9.948;2023-05-29T09:44:34;21.89;40.19
77496;SHT31;66600;48.378;9.948;2023-05-29T09:47:00;21.69;41.38
77496;SHT31;66600;48.378;9.948;2023-05-29T09:49:26;21.80;41.41
77496;SHT31;66600;48.378;9.948;2023-05-29T09:51:55;21.57;41.39
77496;SHT31;66600;48.378;9.948;2023-05-29T09:54:21;21.62;41.31
77496;SHT31;66600;48.378;9.948;2023-05-29T09:56:47;21.31;42.22
77496;SHT31;66600;48.378;9.948;2023-05-29T09:59:14;21.29;41.54
77496;SHT31;66600;48.378;9.948;2023-05-29T10:01:41;21.36;40.17
77496;SHT31;66600;48.378;9.948;2023-05-29T10:04:08;21.25;41.62
77496;SHT31;66600;48.378;9.948;2023-05-29T10:06:36;21.35;43.08
77496;SHT31;66600;48.378;9.948;2023-05-29T10:09:02;22.21;41.85
77496;SHT31;66600;48.378;9.948;2023-05-29T10:11:31;22.52;41.01
77496;SHT31;66600;48.378;9.948;2023-05-29T10:13:59;22.04;43.28
77496;SHT31;66600;48.378;9.948;2023-05-29T10:16:25;21.76;42.81
77496;SHT31;66600;48.378;9.948;2023-05-29T10:18:56;21.57;42.58
77496;SHT31;66600;48.378;9.948;2023-05-29T10:21:22;22.17;42.85
77496;SHT31;66600;48.378;9.948;2023-05-29T10:23:49;22.89;41.03
77496;SHT31;66600;48.378;9.948;2023-05-29T10:26:19;21.94;40.87
77496;SHT31;66600;48.378;9.948;2023-05-29T10:28:50;22.38;41.68
77496;SHT31;66600;48.378;9.948;2023-05-29T10:31:24;22.93;40.53
77496;SHT31;66600;48.378;9.948;2023-05-29T10:34:25;22.85;40.32
77496;SHT31;66600;48.378;9.948;2023-05-29T10:36:56;22.24;42.12
77496;SHT31;66600;48.378;9.948;2023-05-29T10:39:26;23.07;40.41
77496;SHT31;66600;48.378;9.948;2023-05-29T10:41:51;23.44;39.59
77496;SHT31;66600;48.378;9.948;2023-05-29T10:47:02;23.66;40.20
77496;SHT31;66600;48.378;9.948;2023-05-29T10:49:29;23.37;39.50
77496;SHT31;66600;48.378;9.948;2023-05-29T10:51:57;23.86;38.39
77496;SHT31;66600;48.378;9.948;2023-05-29T10:54:24;23.59;38.79
77496;SHT31;66600;48.378;9.948;2023-05-29T10:56:58;23.73;39.46
77496;SHT31;66600;48.378;9.948;2023-05-29T10:59:26;23.83;39.02
77496;SHT31;66600;48.378;9.948;2023-05-29T11:01:55;23.75;38.60
77496;SHT31;66600;48.378;9.948;2023-05-29T11:06:50;22.53;38.35
77496;SHT31;66600;48.378;9.948;2023-05-29T11:12:22;23.30;37.33
77496;SHT31;66600;48.378;9.948;2023-05-29T11:15:06;22.31;39.11
77496;SHT31;66600;48.378;9.948;2023-05-29T11:17:34;22.37;35.71
77496;SHT31;66600;48.378;9.948;2023-05-29T11:25:27;24.17;33.97
77496;SHT31;66600;48.378;9.948;2023-05-29T11:27:53;24.44;33.43
77496;SHT31;66600;48.378;9.948;2023-05-29T11:30:19;24.64;34.16
77496;SHT31;66600;48.378;9.948;2023-05-29T11:32:45;24.83;32.79
77496;SHT31;66600;48.378;9.948;2023-05-29T11:35:15;24.61;33.24
77496;SHT31;66600;48.378;9.948;2023-05-29T11:37:42;24.65;32.63
77496;SHT31;66600;48.378;9.948;2023-05-29T11:40:09;24.75;32.09
77496;SHT31;66600;48.378;9.948;2023-05-29T11:42:35;23.35;32.91
77496;SHT31;66600;48.378;9.948;2023-05-29T11:45:18;23.34;33.91
77496;SHT31;66600;48.378;9.948;2023-05-29T11:48:00;23.48;34.09
77496;SHT31;66600;48.378;9.948;2023-05-29T11:50:31;24.20;32.35
77496;SHT31;66600;48.378;9.948;2023-05-29T11:52:57;24.64;32.13
77496;SHT31;66600;48.378;9.948;2023-05-29T11:55:23;25.15;31.75
77496;SHT31;66600;48.378;9.948;2023-05-29T11:57:50;25.51;30.94
77496;SHT31;66600;48.378;9.948;2023-05-29T12:00:17;23.90;29.60
77496;SHT31;66600;48.378;9.948;2023-05-29T12:02:44;23.62;30.97
77496;SHT31;66600;48.378;9.948;2023-05-29T12:05:12;23.76;32.51
77496;SHT31;66600;48.378;9.948;2023-05-29T12:07:47;24.60;31.69
77496;SHT31;66600;48.378;9.948;2023-05-29T12:10:17;24.57;32.11
77496;SHT31;66600;48.378;9.948;2023-05-29T12:12:51;24.34;31.47
77496;SHT31;66600;48.378;9.948;2023-05-29T12:15:17;24.21;33.14
77496;SHT31;66600;48.378;9.948;2023-05-29T12:17:44;24.40;32.94
77496;SHT31;66600;48.378;9.948;2023-05-29T12:20:12;25.03;31.02
77496;SHT31;66600;48.378;9.948;2023-05-29T12:22:39;24.99;30.07
77496;SHT31;66600;48.378;9.948;2023-05-29T12:25:19;24.71;29.25
77496;SHT31;66600;48.378;9.948;2023-05-29T12:27:44;24.82;30.29
77496;SHT31;66600;48.378;9.948;2023-05-29T12:30:20;25.26;28.99
77496;SHT31;66600;48.378;9.948;2023-05-29T12:32:50;25.46;28.86
77496;SHT31;66600;48.378;9.948;2023-05-29T12:35:24;25.20;28.25
77496;SHT31;66600;48.378;9.948;2023-05-29T12:40:23;23.30;27.70
77496;SHT31;66600;48.378;9.948;2023-05-29T12:42:57;24.21;29.08
77496;SHT31;66600;48.378;9.948;2023-05-29T12:45:25;24.68;29.85
77496;SHT31;66600;48.378;9.948;2023-05-29T12:52:59;24.76;28.64
77496;SHT31;66600;48.378;9.948;2023-05-29T12:55:26;24.30;30.89
77496;SHT31;66600;48.378;9.948;2023-05-29T12:57:52;24.75;30.56
77496;SHT31;66600;48.378;9.948;2023-05-29T13:00:19;24.41;30.63
77496;SHT31;66600;48.378;9.948;2023-05-29T13:02:46;25.20;30.07
77496;SHT31;66600;48.378;9.948;2023-05-29T13:05:11;24.75;31.45
77496;SHT31;66600;48.378;9.948;2023-05-29T13:07:37;25.38;29.79
77496;SHT31;66600;48.378;9.948;2023-05-29T13:10:02;25.82;28.39
77496;SHT31;66600;48.378;9.948;2023-05-29T13:12:28;24.85;28.23
77496;SHT31;66600;48.378;9.948;2023-05-29T13:14:53;24.06;29.22
77496;SHT31;66600;48.378;9.948;2023-05-29T13:17:21;24.99;30.60
77496;SHT31;66600;48.378;9.948;2023-05-29T13:19:46;26.19;29.47
77496;SHT31;66600;48.378;9.948;2023-05-29T13:22:12;26.94;28.68
77496;SHT31;66600;48.378;9.948;2023-05-29T13:24:37;25.81;28.80
77496;SHT31;66600;48.378;9.948;2023-05-29T13:27:03;26.41;28.11
77496;SHT31;66600;48.378;9.948;2023-05-29T13:29:28;26.94;27.21
77496;SHT31;66600;48.378;9.948;2023-05-29T13:31:53;26.19;27.96
77496;SHT31;66600;48.378;9.948;2023-05-29T13:34:19;25.16;29.73
77496;SHT31;66600;48.378;9.948;2023-05-29T13:36:44;25.89;29.06
77496;SHT31;66600;48.378;9.948;2023-05-29T13:39:10;25.50;28.37
77496;SHT31;66600;48.378;9.948;2023-05-29T13:41:35;25.16;28.38
77496;SHT31;66600;48.378;9.948;2023-05-29T13:44:01;26.74;28.10
77496;SHT31;66600;48.378;9.948;2023-05-29T13:46:26;27.49;26.66
77496;SHT31;66600;48.378;9.948;2023-05-29T13:48:52;26.01;27.70
77496;SHT31;66600;48.378;9.948;2023-05-29T13:51:18;25.73;28.59
77496;SHT31;66600;48.378;9.948;2023-05-29T13:53:43;24.92;29.61
77496;SHT31;66600;48.378;9.948;2023-05-29T13:56:08;26.77;27.79
77496;SHT31;66600;48.378;9.948;2023-05-29T13:58:34;27.38;25.88
77496;SHT31;66600;48.378;9.948;2023-05-29T14:00:59;28.29;25.75
77496;SHT31;66600;48.378;9.948;2023-05-29T14:03:24;29.01;25.37
77496;SHT31;66600;48.378;9.948;2023-05-29T14:05:54;29.75;24.36
77496;SHT31;66600;48.378;9.948;2023-05-29T14:08:19;29.03;24.33
77496;SHT31;66600;48.378;9.948;2023-05-29T14:10:44;28.52;24.69
77496;SHT31;66600;48.378;9.948;2023-05-29T14:13:10;28.67;23.71
77496;SHT31;66600;48.378;9.948;2023-05-29T14:15:35;27.98;25.38
77496;SHT31;66600;48.378;9.948;2023-05-29T14:18:00;27.86;25.77
77496;SHT31;66600;48.378;9.948;2023-05-29T14:20:27;27.33;26.61
77496;SHT31;66600;48.378;9.948;2023-05-29T14:22:53;28.32;25.19
77496;SHT31;66600;48.378;9.948;2023-05-29T14:25:18;28.34;23.19
77496;SHT31;66600;48.378;9.948;2023-05-29T14:27:44;27.19;24.35
77496;SHT31;66600;48.378;9.948;2023-05-29T14:30:10;27.57;25.27
77496;SHT31;66600;48.378;9.948;2023-05-29T14:32:35;27.70;25.40
77496;SHT31;66600;48.378;9.948;2023-05-29T14:35:01;28.46;25.41
77496;SHT31;66600;48.378;9.948;2023-05-29T14:37:26;28.59;26.35
77496;SHT31;66600;48.378;9.948;2023-05-29T14:39:52;29.97;24.49
77496;SHT31;66600;48.378;9.948;2023-05-29T14:42:17;30.34;24.02
77496;SHT31;66600;48.378;9.948;2023-05-29T14:44:42;28.45;25.07
77496;SHT31;66600;48.378;9.948;2023-05-29T14:47:08;27.76;26.53
77496;SHT31;66600;48.378;9.948;2023-05-29T14:49:33;29.48;23.90
77496;SHT31;66600;48.378;9.948;2023-05-29T14:51:59;29.24;24.82
77496;SHT31;66600;48.378;9.948;2023-05-29T14:54:24;27.15;25.55
77496;SHT31;66600;48.378;9.948;2023-05-29T14:56:50;28.04;26.46
77496;SHT31;66600;48.378;9.948;2023-05-29T14:59:15;27.94;25.22
77496;SHT31;66600;48.378;9.948;2023-05-29T15:01:41;29.11;24.67
77496;SHT31;66600;48.378;9.948;2023-05-29T15:04:06;28.36;25.01
77496;SHT31;66600;48.378;9.948;2023-05-29T15:06:31;29.04;24.60
77496;SHT31;66600;48.378;9.948;2023-05-29T15:08:58;29.68;23.71
77496;SHT31;66600;48.378;9.948;2023-05-29T15:11:26;30.57;23.38
77496;SHT31;66600;48.378;9.948;2023-05-29T15:13:51;30.69;22.79
77496;SHT31;66600;48.378;9.948;2023-05-29T15:16:16;31.68;21.93
77496;SHT31;66600;48.378;9.948;2023-05-29T15:18:42;30.99;22.50
77496;SHT31;66600;48.378;9.948;2023-05-29T15:21:07;29.06;23.19
77496;SHT31;66600;48.378;9.948;2023-05-29T15:23:32;28.55;23.67
77496;SHT31;66600;48.378;9.948;2023-05-29T15:25:59;30.00;22.57
77496;SHT31;66600;48.378;9.948;2023-05-29T15:28:24;30.16;22.64
77496;SHT31;66600;48.378;9.948;2023-05-29T15:30:50;31.15;22.39
77496;SHT31;66600;48.378;9.948;2023-05-29T15:33:15;31.29;22.06
77496;SHT31;66600;48.378;9.948;2023-05-29T15:35:41;31.81;21.90
77496;SHT31;66600;48.378;9.948;2023-05-29T15:38:08;32.60;21.08
77496;SHT31;66600;48.378;9.948;2023-05-29T15:40:33;32.94;20.96
77496;SHT31;66600;48.378;9.948;2023-05-29T15:42:59;33.12;20.92
77496;SHT31;66600;48.378;9.948;2023-05-29T15:45:24;33.55;20.43
77496;SHT31;66600;48.378;9.948;2023-05-29T15:47:50;33.67;20.35
77496;SHT31;66600;48.378;9.948;2023-05-29T15:50:16;32.20;20.99
77496;SHT31;66600;48.378;9.948;2023-05-29T15:52:41;30.57;22.12